Date,TemperatureHighF,TemperatureAvgF,TemperatureLowF,DewpointHighF,DewpointAvgF,DewpointLowF,HumidityHigh,HumidityAvg,HumidityLow,PressureMaxIn,PressureMinIn,WindSpeedMaxMPH,WindSpeedAvgMPH,GustSpeedMaxMPH,PrecipitationSumIn
2013-1-1,41.4,38.9,34.0,40.8,33.4,20.4,98,82,56,0.00,0.00,0,0,0,0.00
2013-1-2,39.4,32.9,24.8,23.3,18.4,13.7,71,56,39,0.00,0.00,0,0,0,0.00
2013-1-3,47.5,35.3,24.3,23.8,17.9,11.4,77,52,27,0.00,0.00,14,2,14,0.00
2013-1-4,49.5,40.4,33.3,25.2,17.7,12.2,65,41,24,0.00,0.00,8,1,8,0.00
2013-1-5,51.6,41.8,30.7,30.4,23.5,18.8,73,49,33,0.00,0.00,8,1,8,0.00
2013-1-6,52.7,38.0,25.9,28.1,15.4,4.1,82,46,18,0.00,0.00,13,3,15,0.00
2013-1-7,53.6,37.7,20.3,22.8,15.5,9.0,68,43,26,0.00,0.00,11,1,11,0.00
2013-1-8,48.9,45.3,42.1,48.4,34.3,16.1,98,70,34,0.00,0.00,0,0,0,0.87
2013-1-9,57.0,53.7,48.9,56.5,53.1,48.4,98,98,97,0.00,0.00,0,0,0,0.83
2013-1-10,61.3,55.1,47.5,60.1,47.1,31.2,98,78,34,0.00,0.00,9,1,10,0.00
2013-1-11,70.2,57.2,47.3,56.1,38.5,27.8,81,54,22,0.00,0.00,13,1,13,0.00
2013-1-12,65.1,51.5,34.2,62.8,46.4,25.9,97,83,69,0.00,0.00,20,3,20,1.34
2013-1-13,38.7,32.3,26.8,27.2,11.1,5.7,75,42,29,0.00,0.00,21,7,21,0.00
2013-1-14,41.9,31.9,24.6,11.0,8.0,4.6,50,37,26,0.00,0.00,15,3,15,0.00
2013-1-15,37.0,32.1,27.0,25.6,12.4,5.9,86,45,32,0.00,0.00,10,1,10,0.00
2013-1-16,47.3,33.8,23.4,15.3,6.9,2.4,53,34,19,0.00,0.00,8,2,8,0.00
2013-1-17,56.1,42.5,30.2,20.4,15.0,6.5,57,34,20,0.00,0.00,16,4,17,0.00
2013-1-18,60.6,42.4,24.1,31.8,19.8,15.9,81,44,22,0.00,0.00,11,1,11,0.00
2013-1-19,64.9,50.1,40.1,33.2,26.1,20.4,69,41,23,0.00,0.00,9,1,9,0.00
2013-1-20,68.5,48.5,32.0,43.7,28.0,21.6,86,52,20,0.00,0.00,11,1,11,0.00
2013-1-21,54.0,42.7,33.8,39.4,14.2,5.8,86,33,20,0.00,0.00,13,3,13,0.00
2013-1-22,61.3,45.0,30.9,30.6,18.6,5.0,51,35,25,0.00,0.00,10,1,10,0.00
2013-1-23,74.5,55.9,37.9,48.0,34.4,25.9,79,48,21,0.00,0.00,10,1,10,0.00
2013-1-24,72.3,58.5,50.7,58.1,47.4,36.3,98,71,28,0.00,0.00,11,1,11,0.00
2013-1-25,51.1,44.7,40.3,50.5,38.3,25.1,98,81,39,0.00,0.00,12,1,12,0.00
2013-1-26,47.5,45.6,42.4,47.0,43.8,33.5,98,94,70,0.00,0.00,0,0,0,0.00
2013-1-27,70.9,58.9,46.0,67.4,51.9,42.3,98,82,37,0.00,0.00,11,1,11,0.00
2013-1-28,74.5,69.7,64.6,62.8,52.9,41.5,88,58,33,0.00,0.00,13,2,13,0.00
2013-1-29,73.6,64.4,51.6,64.7,50.9,19.9,89,63,27,0.00,0.00,14,1,14,0.59
2013-1-30,52.0,44.0,32.4,28.8,14.2,6.5,51,30,19,0.00,0.00,17,2,17,0.00
2013-1-31,68.2,47.6,32.4,18.8,13.4,6.5,42,27,15,0.00,0.00,24,3,24,0.00
2013-2-1,56.5,40.6,25.5,19.6,10.8,1.9,39,30,20,0.00,0.00,13,4,13,0.00
2013-2-2,64.8,50.0,38.1,31.6,22.3,13.5,55,36,15,0.00,0.00,15,3,15,0.00
2013-2-3,66.9,49.4,30.4,29.4,19.6,14.0,71,36,15,0.00,0.00,10,1,11,0.00
2013-2-4,69.8,57.8,48.6,47.5,34.1,15.2,83,44,22,0.00,0.00,10,1,10,0.04
2013-2-5,60.1,54.7,50.4,59.5,53.2,46.1,98,95,83,0.00,0.00,7,0,7,0.00
2013-2-6,61.3,57.1,50.2,60.8,55.2,48.2,98,94,64,0.00,0.00,0,0,0,0.00
2013-2-7,76.3,61.6,50.7,60.1,46.1,19.6,98,65,13,0.00,0.00,23,2,23,0.00
2013-2-8,61.0,49.1,39.4,32.1,21.3,11.8,67,36,16,0.00,0.00,14,3,14,0.00
2013-2-9,56.8,46.8,42.6,56.3,35.5,20.1,98,67,37,0.00,0.00,13,1,13,0.00
2013-2-10,65.8,56.3,37.9,62.6,31.1,10.4,98,49,15,0.00,0.00,13,2,13,0.91
2013-2-11,56.1,47.8,37.2,24.4,19.2,15.5,58,32,22,0.00,0.00,14,3,14,0.00
2013-2-12,45.9,44.1,39.9,44.8,39.1,24.2,98,84,50,0.00,0.00,14,2,14,0.35
2013-2-13,56.5,43.7,38.7,37.9,27.5,18.6,90,57,25,0.00,0.00,6,0,8,0.00
2013-2-14,68.4,49.7,35.6,39.3,23.7,11.3,79,43,15,0.00,0.00,13,1,13,0.00
2013-2-15,49.8,43.3,28.6,32.1,13.8,1.0,68,32,19,0.00,0.00,18,3,18,0.04
2013-2-16,53.4,40.4,28.4,19.4,12.3,6.3,47,33,18,0.00,0.00,13,2,13,0.00
2013-2-17,70.3,53.9,37.8,29.2,17.1,12.0,41,25,14,0.00,0.00,11,3,11,0.00
2013-2-18,75.9,59.5,47.1,42.0,26.6,10.4,52,31,14,0.00,0.00,20,5,20,0.00
2013-2-19,58.6,48.0,34.0,18.5,11.6,7.7,42,24,17,0.00,0.00,11,2,11,0.00
2013-2-20,48.9,40.4,36.0,34.9,26.3,10.1,77,59,21,0.00,0.00,18,1,18,0.16
2013-2-21,60.6,45.5,36.3,43.7,27.2,19.6,95,53,22,0.00,0.00,18,3,18,0.16
2013-2-22,40.1,32.7,27.9,26.1,14.5,4.0,63,47,31,0.00,0.00,10,1,10,0.00
2013-2-23,42.4,34.9,30.9,17.5,14.4,11.0,53,43,28,0.00,0.00,5,0,5,0.00
2013-2-24,66.2,49.9,27.9,26.2,20.8,14.4,67,35,17,0.00,0.00,15,4,15,0.00
2013-2-25,59.0,48.9,37.9,47.1,26.3,14.0,80,44,23,0.00,0.00,10,0,10,0.00
2013-2-26,57.2,44.6,35.2,23.8,16.4,10.1,54,34,17,0.00,0.00,21,1,21,0.00
2013-2-27,56.1,43.5,32.9,24.5,14.4,5.0,67,34,17,0.00,0.00,12,2,17,0.00
2013-2-28,56.8,43.4,31.5,18.7,12.9,6.4,56,31,17,0.00,0.00,19,4,19,0.00
2013-3-1,51.8,41.0,31.3,18.5,13.9,10.2,55,34,21,0.00,0.00,14,3,14,0.00
2013-3-2,50.7,38.0,27.0,11.8,8.5,3.6,43,30,19,0.00,0.00,13,2,13,0.00
2013-3-3,69.3,51.0,29.1,23.4,15.2,10.1,47,27,15,0.00,0.00,17,3,17,0.00
2013-3-4,86.9,65.5,54.3,34.3,28.5,22.7,40,27,11,0.00,0.00,23,4,23,0.00
2013-3-5,56.8,47.8,39.4,26.4,12.7,2.7,40,25,18,0.00,0.00,28,5,28,0.00
2013-3-6,59.5,44.8,31.1,14.7,9.1,2.3,40,24,17,0.00,0.00,11,2,11,0.00
2013-3-7,69.4,53.1,32.4,19.8,13.9,2.1,40,22,15,0.00,0.00,14,3,14,0.00
2013-3-8,61.7,56.3,49.1,38.5,31.0,13.5,45,38,20,0.00,0.00,9,1,9,0.00
2013-3-9,66.0,61.8,56.3,62.6,51.1,38.3,95,69,44,0.00,0.00,14,3,14,1.97
2013-3-10,56.1,48.7,37.9,55.0,30.7,13.3,98,56,28,0.00,0.00,10,0,10,0.59
2013-3-11,56.8,42.4,30.2,23.1,13.7,5.1,66,34,17,0.00,0.00,12,2,12,0.59
2013-3-12,63.9,47.6,30.6,27.6,17.2,12.4,63,33,16,0.00,0.00,11,2,11,0.59
2013-3-13,64.9,51.4,35.1,26.8,18.5,13.7,54,29,15,0.00,0.00,9,2,9,0.59
2013-3-14,77.0,59.9,43.9,29.5,23.0,15.2,38,25,15,0.00,0.00,10,2,10,0.00
2013-3-15,79.3,65.9,53.8,44.7,30.9,20.1,67,31,15,0.00,0.00,12,3,12,0.00
2013-3-16,79.9,67.9,57.6,46.6,36.0,23.1,65,33,20,0.00,0.00,14,3,14,0.00
2013-3-17,72.3,64.4,51.6,53.6,39.0,27.3,65,41,23,0.00,0.00,8,0,8,0.00
2013-3-18,66.4,55.6,48.4,46.3,31.0,17.8,82,43,21,0.00,0.00,15,0,15,0.00
2013-3-19,63.9,54.5,43.7,26.0,18.6,13.4,44,26,16,0.00,0.00,15,4,17,0.00
2013-3-20,63.1,53.3,41.9,23.4,17.4,9.4,46,25,16,0.00,0.00,14,1,14,0.00
2013-3-21,66.4,53.2,46.8,27.5,20.4,13.7,37,28,23,0.00,0.00,15,4,15,0.00
2013-3-22,50.2,46.7,42.8,46.7,38.0,21.3,97,76,32,0.00,0.00,11,1,11,0.00
2013-3-23,49.8,47.8,46.0,48.4,46.0,43.9,98,94,81,0.00,0.00,9,1,9,0.47
2013-3-24,50.5,43.1,36.5,44.6,15.7,3.0,88,36,19,0.00,0.00,16,2,16,0.00
2013-3-25,50.5,40.1,28.0,11.0,6.5,1.0,42,25,19,0.00,0.00,22,5,22,0.00
2013-3-26,54.5,39.9,24.3,13.4,7.2,-1.0,45,27,18,0.00,0.00,11,2,11,0.00
2013-3-27,68.0,52.5,35.6,20.2,14.8,8.2,37,23,15,0.00,0.00,13,2,13,0.00
2013-3-28,71.2,60.7,48.6,39.4,33.0,18.8,68,37,24,0.00,0.00,12,2,12,0.00
2013-3-29,77.0,67.0,60.8,47.1,40.2,33.8,59,39,22,0.00,0.00,0,0,0,0.00
2013-3-30,79.3,67.0,56.3,65.0,49.5,39.5,94,58,26,0.00,0.00,8,0,8,0.04
2013-3-31,73.0,64.1,51.4,62.0,43.2,25.7,98,53,22,0.00,0.00,24,1,24,0.04
2013-4-1,74.8,61.9,45.0,54.2,33.7,23.2,84,42,16,0.00,0.00,4,0,4,0.00
2013-4-2,66.4,58.5,47.8,48.8,39.4,29.6,80,50,34,0.00,0.00,13,1,14,0.04
2013-4-3,51.4,47.4,44.4,45.1,34.7,22.6,92,64,37,0.00,0.00,14,1,14,0.00
2013-4-4,52.2,45.1,41.4,38.7,30.4,22.1,89,58,36,0.00,0.00,10,0,11,0.00
2013-4-5,70.3,54.5,39.0,40.5,31.2,23.1,78,46,19,0.00,0.00,8,0,8,0.00
2013-4-6,75.4,63.8,53.6,45.2,35.9,26.9,58,38,21,0.00,0.00,14,0,14,0.00
2013-4-7,70.5,65.4,59.7,52.2,46.2,41.8,70,51,36,0.00,0.00,8,0,8,0.00
2013-4-8,75.2,69.7,63.3,52.5,45.9,39.3,64,44,32,0.00,0.00,13,0,13,0.00
2013-4-9,82.9,73.2,67.3,55.9,46.3,37.1,64,40,21,0.00,0.00,15,1,15,0.00
2013-4-10,73.4,47.3,37.9,59.5,37.1,21.6,89,69,35,0.00,0.00,14,0,16,0.04
2013-4-11,61.3,46.0,36.9,28.4,19.6,13.5,62,36,19,0.00,0.00,11,0,11,0.00
2013-4-12,71.2,55.8,38.7,44.6,30.0,25.0,75,42,22,0.00,0.00,10,0,10,0.00
2013-4-13,77.2,63.7,49.3,35.6,29.6,23.1,54,30,15,0.00,0.00,13,0,13,0.00
2013-4-14,80.2,67.7,53.4,53.5,39.3,30.0,59,37,22,0.00,0.00,11,0,11,0.00
2013-4-15,85.3,75.5,68.0,61.2,49.7,37.9,78,45,20,0.00,0.00,11,0,13,0.00
2013-4-16,84.4,76.0,69.6,60.3,49.8,38.6,71,43,21,0.00,0.00,11,0,11,0.00
2013-4-17,83.3,76.7,72.7,63.2,52.8,41.9,70,46,25,0.00,0.00,17,1,17,0.00
2013-4-18,75.0,53.8,41.5,64.1,34.3,15.1,94,51,26,0.00,0.00,11,0,14,0.04
2013-4-19,63.0,47.9,35.1,26.0,16.7,10.1,55,31,16,0.00,0.00,11,0,11,0.00
2013-4-20,69.8,57.1,40.5,24.6,20.2,15.8,46,25,15,0.00,0.00,13,0,13,0.00
2013-4-21,70.0,58.7,45.1,35.7,26.7,20.3,58,31,20,0.00,0.00,11,0,13,0.00
2013-4-22,75.7,63.2,47.8,43.4,35.3,28.5,74,38,23,0.00,0.00,10,0,10,0.00
2013-4-23,65.1,53.6,40.3,59.4,43.1,29.4,92,69,46,0.00,0.00,14,0,14,0.00
2013-4-24,59.0,47.1,37.9,35.7,22.8,15.0,86,43,19,0.00,0.00,15,1,15,0.04
2013-4-25,70.0,55.9,34.5,32.1,23.9,17.3,68,31,17,0.00,0.00,11,0,11,0.00
2013-4-26,73.2,64.6,55.9,57.8,42.3,24.8,69,46,25,0.00,0.00,12,0,12,0.00
2013-4-27,71.6,66.1,56.5,58.7,46.2,33.4,73,51,25,0.00,0.00,6,0,6,0.00
2013-4-28,81.7,65.1,47.7,55.6,43.4,30.9,86,52,17,0.00,0.00,5,0,5,0.00
2013-4-29,84.9,72.7,59.9,58.8,43.8,27.2,85,43,13,0.00,0.00,10,0,10,0.00
2013-4-30,80.6,71.0,57.2,53.5,42.9,35.9,75,39,21,0.00,0.00,13,0,13,0.00
2013-5-1,81.1,70.9,63.0,60.9,49.5,35.5,91,52,21,0.00,0.00,11,0,11,0.00
2013-5-2,65.3,50.7,41.2,55.5,36.0,21.5,82,58,41,0.00,0.00,19,0,19,0.04
2013-5-3,63.9,49.9,37.6,25.1,19.0,9.8,59,33,16,0.00,0.00,18,1,18,0.00
2013-5-4,68.9,54.3,36.7,28.6,20.6,14.5,66,31,15,0.00,0.00,15,1,15,0.00
2013-5-5,63.0,52.1,40.3,35.3,28.2,23.8,73,41,26,0.00,0.00,15,1,15,0.00
2013-5-6,75.7,60.5,44.2,46.4,35.4,27.6,81,45,18,0.00,0.00,10,0,10,0.00
2013-5-7,80.8,67.1,50.0,50.9,37.1,27.0,77,39,15,0.00,0.00,5,0,5,0.00
2013-5-8,82.6,71.6,60.4,42.1,37.2,31.3,46,30,19,0.00,0.00,13,0,13,0.00
2013-5-9,73.0,68.5,64.4,66.1,54.5,39.0,87,63,32,0.00,0.00,10,0,10,0.04
2013-5-10,78.6,68.5,60.1,63.0,48.6,33.1,95,56,21,0.00,0.00,9,0,9,0.00
2013-5-11,77.5,67.5,56.5,51.1,35.3,23.6,79,36,15,0.00,0.00,17,2,17,0.00
2013-5-12,76.5,63.6,50.2,39.1,25.1,16.4,46,26,13,0.00,0.00,11,0,11,0.00
2013-5-13,86.0,70.4,52.0,32.4,27.2,21.4,44,22,13,0.00,0.00,8,0,8,0.00
2013-5-14,86.9,74.8,61.9,41.5,32.8,24.4,45,23,13,0.00,0.00,10,0,10,0.00
2013-5-15,80.8,70.4,63.3,64.2,53.9,35.4,95,59,29,0.00,0.00,11,0,12,0.08
2013-5-16,65.8,63.7,62.8,64.7,61.6,59.0,97,93,87,0.00,0.00,6,0,6,0.00
2013-5-18,89.2,84.2,77.2,56.6,51.5,45.9,49,33,23,0.00,0.00,12,1,12,0.00
2013-5-19,88.3,79.0,70.0,62.0,50.4,40.9,75,40,20,0.00,0.00,15,1,15,0.00
2013-5-20,87.4,78.8,72.9,61.2,53.5,45.5,66,43,25,0.00,0.00,12,1,12,0.00
2013-5-21,81.9,70.1,60.6,65.8,59.7,45.1,98,72,34,0.00,0.00,31,0,31,0.04
2013-5-22,84.4,68.8,54.5,68.6,46.5,27.2,98,57,13,0.00,0.00,3,0,3,0.00
2013-5-23,84.0,73.6,65.8,68.4,57.2,43.7,86,60,29,0.00,0.00,16,0,16,0.00
2013-5-24,81.5,74.8,68.0,66.3,60.2,50.6,85,62,41,0.00,0.00,6,0,6,0.04
2013-5-25,85.1,72.5,66.7,67.1,56.5,35.4,95,63,22,0.00,0.00,9,0,9,0.00
2013-5-26,82.4,75.1,67.8,69.2,61.3,48.4,84,64,32,0.00,0.00,11,0,11,0.00
2013-5-27,86.2,77.7,71.1,64.3,52.1,41.0,76,44,22,0.00,0.00,10,0,10,0.00
2013-5-28,84.4,77.4,71.1,59.8,49.6,38.6,63,40,20,0.00,0.00,11,0,11,0.00
2013-5-29,81.7,75.7,72.1,63.5,56.1,47.2,69,52,33,0.00,0.00,13,0,13,0.00
2013-5-30,87.6,79.8,73.4,62.4,55.0,47.2,68,45,25,0.00,0.00,12,0,12,0.00
2013-5-31,90.1,81.8,75.9,63.1,55.3,43.3,64,43,21,0.00,0.00,10,0,10,0.00
2013-6-1,81.1,76.4,70.7,66.0,57.1,48.2,69,52,36,0.00,0.00,11,0,11,0.00
2013-6-2,78.6,70.3,60.6,54.6,40.2,25.6,77,38,15,0.00,0.00,13,1,13,0.00
2013-6-3,85.5,72.0,56.3,55.3,42.8,31.9,77,40,16,0.00,0.00,4,0,4,0.00
2013-6-4,87.6,76.2,67.1,65.4,49.9,39.4,88,44,19,0.00,0.00,18,0,18,0.04
2013-6-5,90.1,78.3,70.5,68.1,55.2,39.3,87,50,19,0.00,0.00,12,0,12,0.00
2013-6-6,76.5,70.6,65.5,67.2,59.7,46.4,92,70,37,0.00,0.00,17,0,17,0.00
2013-6-7,79.5,70.2,60.3,61.7,42.9,27.1,87,45,15,0.00,0.00,11,0,11,0.00
2013-6-8,86.0,72.6,57.0,60.0,41.8,27.5,87,41,16,0.00,0.00,8,0,8,0.00
2013-6-9,88.0,76.3,67.8,65.9,50.6,38.3,93,47,18,0.00,0.00,8,0,12,0.04
2013-6-10,97.0,82.6,66.2,67.6,48.0,30.3,87,40,11,0.00,0.00,5,0,6,0.00
2013-6-11,93.6,83.3,70.7,68.9,48.7,40.0,80,34,17,0.00,0.00,6,0,6,0.00
2013-6-12,93.6,83.3,73.8,71.0,51.2,35.8,81,38,14,0.00,0.00,8,0,8,0.00
2013-6-13,98.6,85.5,72.9,64.9,48.1,32.7,72,34,10,0.00,0.00,5,0,5,0.00
2013-6-14,97.9,84.8,70.5,71.9,52.0,33.6,83,41,11,0.00,0.00,0,0,0,0.00
2013-6-15,94.6,82.5,73.6,71.2,57.3,42.1,81,47,17,0.00,0.00,10,0,10,0.00
2013-6-16,95.9,84.6,74.3,71.1,51.0,36.5,82,38,14,0.00,0.00,6,0,6,0.00
2013-6-17,85.8,77.1,68.4,68.4,58.2,45.4,95,55,26,0.00,0.00,16,0,16,0.04
2013-6-18,82.4,74.6,70.7,63.7,57.5,47.3,77,57,30,0.00,0.00,13,0,13,0.00
2013-6-19,89.1,77.9,66.6,74.2,55.6,40.8,97,54,19,0.00,0.00,5,0,5,0.00
2013-6-20,94.1,84.0,74.1,71.1,50.4,31.0,87,38,14,0.00,0.00,10,0,10,0.00
2013-6-21,93.7,84.6,74.7,64.5,46.7,35.2,70,31,14,0.00,0.00,13,0,13,0.00
2013-6-22,93.0,83.8,73.9,61.8,46.6,35.6,65,30,14,0.00,0.00,12,0,12,0.00
2013-6-23,93.7,84.5,75.0,59.3,46.4,35.7,57,29,14,0.00,0.00,12,0,12,0.00
2013-6-24,93.7,84.7,75.0,59.8,47.1,35.6,59,30,14,0.00,0.00,10,0,10,0.00
2013-6-25,96.4,85.9,75.7,58.4,46.2,31.6,54,28,11,0.00,0.00,10,0,10,0.00
2013-6-26,97.7,85.8,75.7,56.9,46.8,37.9,49,28,16,0.00,0.00,10,0,10,0.00
2013-6-27,100.6,87.0,74.7,57.4,48.4,37.9,55,30,13,0.00,0.00,7,0,7,0.00
2013-6-28,98.2,86.2,73.4,59.1,44.0,31.0,58,26,11,0.00,0.00,13,1,13,0.00
2013-6-29,92.5,81.6,69.4,61.7,41.4,28.1,72,30,12,0.00,0.00,14,1,14,0.00
2013-6-30,86.2,77.2,68.0,55.4,36.0,25.7,61,26,13,0.00,0.00,16,2,16,0.00
2013-7-1,84.6,74.3,64.9,44.3,37.3,27.3,46,28,14,0.00,0.00,13,1,13,0.00
2013-7-2,86.0,74.6,62.4,41.5,33.1,24.4,41,24,13,0.00,0.00,13,0,13,0.00
2013-7-3,90.7,73.5,57.2,52.9,36.3,25.4,72,33,12,0.00,0.00,9,0,9,0.00
2013-7-4,94.1,77.7,63.9,47.9,36.6,27.6,54,26,11,0.00,0.00,8,0,8,0.00
2013-7-5,94.6,81.4,66.2,54.4,39.4,28.8,64,27,11,0.00,0.00,6,0,6,0.00
2013-7-6,93.6,82.8,69.4,43.7,37.0,28.9,38,21,11,0.00,0.00,12,1,12,0.00
2013-7-7,94.5,84.0,70.3,52.3,41.2,30.7,52,25,11,0.00,0.00,12,1,12,0.00
2013-7-8,97.0,85.3,73.9,66.5,47.4,31.1,77,32,11,0.00,0.00,8,1,8,0.00
2013-7-9,98.6,87.5,76.1,54.1,40.1,28.8,45,22,10,0.00,0.00,10,1,10,0.00
2013-7-10,102.2,89.4,78.6,52.3,41.2,30.6,37,21,9,0.00,0.00,9,1,9,0.00
2013-7-11,101.7,85.6,75.0,68.1,46.3,32.7,66,28,10,0.00,0.00,15,1,15,0.04
2013-7-12,97.5,84.2,70.7,70.0,48.5,31.0,88,39,11,0.00,0.00,10,1,10,0.00
2013-7-13,95.5,84.6,73.4,55.2,39.5,28.5,51,24,11,0.00,0.00,11,2,11,0.00
2013-7-14,76.6,71.9,66.7,63.4,51.0,33.5,81,50,22,0.00,0.00,8,2,9,0.00
2013-7-15,75.2,70.5,66.0,69.1,60.9,49.1,92,73,40,0.00,0.00,13,1,13,0.04
2013-7-16,89.1,78.6,70.2,70.3,55.0,39.2,92,53,18,0.00,0.00,12,1,12,0.00
2013-7-17,91.4,80.5,71.8,70.2,51.8,35.2,85,44,14,0.00,0.00,13,2,14,0.00
2013-7-18,96.4,82.4,69.4,71.2,49.0,31.0,85,40,11,0.00,0.00,8,1,8,0.00
2013-7-19,95.0,78.4,71.8,69.2,57.7,35.6,84,56,14,0.00,0.00,10,0,10,0.04
2013-7-20,94.5,81.6,72.3,72.0,53.3,31.0,87,48,12,0.00,0.00,8,1,8,0.00
2013-7-21,99.3,85.0,72.9,68.6,49.8,31.9,84,38,10,0.00,0.00,8,1,8,0.00
2013-7-22,99.3,87.3,75.6,69.8,47.1,31.0,78,31,10,0.00,0.00,12,2,12,0.00
2013-7-23,100.0,88.2,78.4,59.9,46.8,36.6,52,26,15,0.00,0.00,10,2,10,0.00
2013-7-24,87.8,78.6,70.7,73.9,52.7,36.0,85,47,19,0.00,0.00,22,2,25,0.35
2013-7-25,92.3,80.5,67.5,68.8,49.3,34.5,85,42,14,0.00,0.00,9,1,9,0.00
2013-7-26,94.1,78.9,72.5,75.4,59.5,40.7,93,56,16,0.00,0.00,15,1,15,0.43
2013-7-27,86.4,76.8,70.5,68.0,51.7,37.2,90,48,18,0.00,0.00,13,2,13,0.00
2013-7-28,90.1,78.7,66.7,67.0,48.7,30.3,85,43,13,0.00,0.00,11,1,11,0.00
2013-7-29,94.8,83.5,74.8,67.4,48.3,36.3,75,34,14,0.00,0.00,8,2,9,0.00
2013-7-30,98.1,86.4,77.0,55.5,42.3,28.5,45,23,13,0.00,0.00,10,2,10,0.00
2013-7-31,100.6,88.3,76.6,59.8,43.7,32.8,44,23,10,0.00,0.00,11,2,11,0.00
2013-8-1,97.9,87.5,77.9,69.1,51.3,37.9,73,34,13,0.00,0.00,12,4,12,0.00
2013-8-2,103.5,85.6,0.0,80.9,45.5,0.0,96,32,9,29.99,0.00,13,1,13,0.02
2013-8-3,100.2,89.5,78.8,50.3,40.0,30.7,35,19,10,0.00,0.00,11,1,11,0.00
2013-8-4,99.3,87.8,74.1,61.4,42.5,31.0,60,24,10,0.00,0.00,7,0,7,0.00
2013-8-5,102.4,90.2,77.2,55.9,41.2,30.2,44,21,9,0.00,0.00,7,1,7,0.00
2013-8-6,103.5,90.6,78.3,52.8,40.2,31.0,40,19,9,0.00,0.00,8,1,8,0.00
2013-8-7,103.6,91.1,78.6,51.1,39.6,31.0,38,18,9,0.00,0.00,8,1,8,0.00
2013-8-8,102.9,90.5,79.0,53.8,40.8,31.0,40,19,9,0.00,0.00,8,1,8,0.00
2013-8-9,102.9,87.4,72.1,61.4,41.4,31.9,63,23,9,0.00,0.00,27,1,27,0.63
2013-8-10,94.6,82.9,75.0,72.8,52.9,30.5,90,45,11,0.00,0.00,11,4,11,0.59
2013-8-11,100.0,84.9,71.6,69.4,47.0,31.0,80,35,10,0.00,0.00,13,1,13,0.00
2013-8-12,100.4,87.6,75.4,59.8,44.7,31.0,56,27,10,0.00,0.00,9,1,9,0.00
2013-8-13,95.4,83.9,74.7,63.8,49.2,36.7,68,34,14,0.00,0.00,15,2,15,0.00
2013-8-14,89.8,80.6,74.1,65.9,49.2,33.9,75,38,15,0.00,0.00,15,3,15,0.00
2013-8-15,88.3,76.4,66.0,48.1,36.8,28.1,42,26,13,0.00,0.00,10,2,10,0.00
2013-8-16,86.0,74.8,66.0,63.4,41.9,27.5,84,37,13,0.00,0.00,23,3,23,0.04
2013-8-17,86.7,74.2,60.3,54.8,36.6,27.0,73,31,13,0.00,0.00,14,3,14,0.00
2013-8-18,90.0,75.6,60.4,58.0,38.5,24.7,74,32,12,0.00,0.00,12,2,12,0.00
2013-8-19,93.2,79.8,65.8,57.2,38.6,26.4,65,27,12,0.00,0.00,9,1,9,0.00
2013-8-20,95.9,81.8,67.6,47.5,35.3,27.0,44,21,11,0.00,0.00,8,0,8,0.00
2013-8-21,95.5,82.9,68.0,52.2,37.7,28.2,53,23,11,0.00,0.00,10,1,10,0.00
2013-8-22,101.1,86.2,69.3,60.8,42.0,30.7,56,26,10,0.00,0.00,9,1,9,0.00
2013-8-23,99.3,84.3,74.7,62.7,46.7,31.0,62,31,10,0.00,0.00,14,1,14,0.00
2013-8-24,98.1,85.9,73.8,56.8,42.6,30.3,53,25,11,0.00,0.00,11,2,11,0.00
2013-8-25,97.2,85.0,71.6,61.9,41.5,29.6,67,26,11,0.00,0.00,13,1,13,0.00
2013-8-26,95.2,83.4,70.0,55.5,38.9,27.0,57,23,11,0.00,0.00,14,1,14,0.00
2013-8-27,95.4,82.1,72.7,61.7,44.7,29.4,66,32,11,0.00,0.00,8,1,8,0.00
2013-8-28,99.5,84.4,69.3,60.6,42.3,29.4,69,29,10,0.00,0.00,8,1,8,0.00
2013-8-29,101.3,85.3,69.6,55.9,40.7,30.3,61,26,10,0.00,0.00,8,1,8,0.00
2013-8-30,103.3,87.8,71.4,48.1,37.3,29.2,42,19,9,0.00,0.00,8,1,8,0.00
2013-8-31,103.8,88.4,75.2,47.6,38.2,30.3,36,19,9,0.00,0.00,7,0,7,0.00
2013-9-1,105.1,89.9,78.3,46.3,38.3,31.0,32,18,9,0.00,0.00,13,1,13,0.00
2013-9-2,97.3,84.0,74.8,70.0,48.8,31.0,80,37,11,0.00,0.00,10,2,10,0.04
2013-9-3,97.5,83.0,71.1,47.2,37.1,27.0,42,22,11,0.00,0.00,11,2,11,0.00
2013-9-4,97.2,84.6,74.5,50.9,39.4,28.5,43,23,11,0.00,0.00,13,2,13,0.00
2013-9-5,98.2,84.8,72.1,40.1,33.9,27.9,28,17,11,0.00,0.00,12,1,12,0.00
2013-9-6,98.1,84.3,69.4,41.5,34.5,28.1,35,18,11,0.00,0.00,9,0,9,0.00
2013-9-7,100.4,86.7,75.2,47.9,36.8,28.1,36,19,10,0.00,0.00,8,0,8,0.00
2013-9-8,97.5,83.9,69.4,54.9,39.0,27.0,56,24,11,0.00,0.00,9,1,9,0.00
2013-9-9,96.8,83.1,68.4,54.8,37.4,28.1,57,23,11,0.00,0.00,10,1,10,0.00
2013-9-10,94.1,82.0,70.2,61.5,40.7,28.1,71,27,11,0.00,0.00,11,2,11,0.00
2013-9-11,96.4,81.9,66.6,57.9,41.3,30.3,67,29,11,0.00,0.00,10,1,10,0.00
2013-9-12,97.7,83.1,69.4,60.0,42.7,30.6,66,30,11,0.00,0.00,9,1,9,0.00
2013-9-13,95.7,82.1,72.0,57.6,43.8,31.0,59,29,11,0.00,0.00,17,3,17,0.00
2013-9-14,90.1,79.6,70.2,48.6,32.9,25.6,37,19,12,0.00,0.00,11,1,11,0.00
2013-9-15,95.2,81.7,68.2,40.2,32.0,26.3,23,17,11,0.00,0.00,8,1,8,0.00
2013-9-16,96.4,84.2,69.6,45.5,35.9,28.1,38,19,11,0.00,0.00,12,2,12,0.00
2013-9-17,96.1,82.5,72.7,48.3,39.8,31.0,41,24,11,0.00,0.00,8,1,8,0.00
2013-9-18,97.0,84.4,75.2,62.6,40.2,29.8,48,23,11,0.00,0.00,6,1,10,0.04
2013-9-19,93.0,81.6,72.0,67.9,47.2,35.9,84,34,17,0.00,0.00,10,1,10,0.35
2013-9-20,74.1,72.1,66.7,71.2,63.2,39.7,95,76,37,0.00,0.00,14,4,14,0.55
2013-9-21,82.0,68.9,58.8,49.7,32.4,18.5,69,31,12,0.00,0.00,15,5,15,0.00
2013-9-22,81.7,67.2,53.2,48.7,32.8,19.2,74,35,12,0.00,0.00,10,1,10,0.00
2013-9-23,85.1,69.0,55.0,46.0,33.8,22.5,67,33,12,0.00,0.00,8,1,8,0.00
2013-9-24,92.1,74.5,59.2,56.4,36.0,18.5,76,31,11,0.00,0.00,13,2,13,0.00
2013-9-25,93.7,72.5,53.4,50.8,33.9,22.0,71,31,11,0.00,0.00,6,0,6,0.00
2013-9-26,95.5,79.6,63.0,36.6,31.3,27.0,37,19,11,0.00,0.00,10,1,10,0.00
2013-9-27,89.2,77.0,62.8,53.2,41.8,33.5,66,31,18,0.00,0.00,11,2,11,0.00
2013-9-28,87.4,74.6,64.8,68.2,54.6,41.1,91,55,23,0.00,0.00,11,3,11,0.63
2013-9-29,81.1,68.3,59.4,58.8,39.1,19.6,81,42,12,0.00,0.00,13,3,13,0.00
2013-9-30,87.1,71.8,54.7,61.1,38.6,26.4,79,38,13,0.00,0.00,7,0,7,0.00
2013-10-1,88.9,77.8,68.9,69.7,51.3,29.2,91,49,13,0.00,0.00,10,1,10,0.00
2013-10-2,88.0,78.3,72.0,67.9,53.0,37.4,85,48,18,0.00,0.00,10,2,10,0.00
2013-10-3,88.9,79.0,72.1,66.7,51.7,34.9,78,44,18,0.00,0.00,13,2,13,0.00
2013-10-4,89.1,79.8,73.6,64.9,48.7,34.1,72,39,15,0.00,0.00,13,2,13,0.00
2013-10-5,76.5,62.3,49.6,65.3,45.6,21.7,83,58,25,0.00,0.00,17,3,17,0.20
2013-10-6,72.3,59.6,47.1,47.8,26.6,10.4,92,39,14,0.00,0.00,11,1,11,0.00
2013-10-7,77.9,59.8,43.2,34.1,24.0,14.4,65,31,13,0.00,0.00,10,2,10,0.00
2013-10-8,78.6,61.4,43.7,43.6,30.2,21.9,77,37,13,0.00,0.00,8,1,8,0.00
2013-10-9,82.6,67.2,51.3,48.3,32.4,23.4,74,31,14,0.00,0.00,9,1,9,0.00
2013-10-10,82.9,69.4,56.5,52.9,35.3,23.1,77,34,14,0.00,0.00,10,2,10,0.00
2013-10-11,85.8,74.6,65.1,60.2,48.2,37.5,78,44,19,0.00,0.00,11,1,11,0.00
2013-10-12,91.4,76.9,66.4,64.1,54.5,28.8,82,52,15,0.00,0.00,13,1,13,0.16
2013-10-13,73.6,70.3,65.8,70.8,59.9,48.6,97,72,44,0.00,0.00,9,0,9,0.00
2013-10-14,71.6,69.3,67.5,70.1,65.2,55.6,96,87,63,0.00,0.00,0,0,0,0.35
2013-10-15,75.7,65.1,53.8,69.5,60.2,47.0,92,84,44,0.00,0.00,15,4,15,0.39
2013-10-16,62.4,56.2,51.8,52.6,38.2,24.0,94,56,24,0.00,0.00,15,2,15,0.16
2013-10-17,72.3,56.4,44.2,44.7,29.3,18.5,83,41,14,0.00,0.00,6,0,6,0.00
2013-10-18,69.1,57.9,47.1,52.0,35.5,21.2,85,49,17,0.00,0.00,17,1,17,0.00
2013-10-19,64.4,50.5,39.7,35.5,23.4,12.4,72,39,15,0.00,0.00,10,1,10,0.00
2013-10-20,70.5,54.2,37.4,45.2,25.5,16.2,82,41,14,0.00,0.00,6,0,9,0.00
2013-10-21,72.1,57.0,49.3,46.7,37.9,27.2,76,50,28,0.00,0.00,13,2,13,0.00
2013-10-22,75.2,59.8,38.8,38.8,24.7,16.1,75,31,13,0.00,0.00,13,1,13,0.00
2013-10-23,81.1,62.0,44.6,47.6,29.5,18.5,78,37,12,0.00,0.00,8,0,8,0.00
2013-10-24,72.0,61.0,48.2,45.4,26.7,18.4,75,30,15,0.00,0.00,14,4,14,0.00
2013-10-25,64.6,53.8,46.2,28.1,21.7,12.8,48,30,16,0.00,0.00,13,3,13,0.00
2013-10-26,71.4,58.5,50.0,58.9,40.0,26.0,97,54,28,0.00,0.00,17,1,17,1.30
2013-10-27,64.0,60.2,56.3,59.3,52.5,38.9,97,78,40,0.00,0.00,4,0,4,0.00
2013-10-28,72.1,63.2,51.4,64.2,52.7,43.1,98,72,38,0.00,0.00,7,1,7,0.00
2013-10-29,76.3,71.4,67.6,62.5,56.2,48.5,81,60,39,0.00,0.00,12,1,12,0.00
2013-10-30,71.2,68.3,65.3,67.3,59.5,51.8,91,74,53,0.00,0.00,10,0,10,0.08
2013-10-31,73.2,66.4,54.1,72.3,42.2,19.1,98,53,14,0.00,0.00,22,1,22,0.04
2013-11-1,75.9,60.1,45.1,52.3,27.3,17.6,81,36,13,0.00,0.00,10,1,10,0.00
2013-11-2,65.1,54.2,39.7,26.3,18.9,9.7,49,27,15,0.00,0.00,18,3,18,0.00
2013-11-3,65.7,50.9,35.4,38.9,22.7,15.8,78,39,15,0.00,40.00,8,2,11,0.00
2013-11-4,60.1,57.4,53.2,59.5,43.4,25.0,98,64,30,0.00,0.00,7,0,7,0.20
2013-11-5,69.4,64.8,60.1,68.8,62.4,57.8,98,92,72,0.00,0.00,12,0,12,0.24
2013-11-6,69.8,53.9,41.7,69.0,37.0,19.2,98,57,25,0.00,0.00,16,1,16,0.20
2013-11-7,63.0,47.9,35.2,38.2,22.7,12.4,78,42,16,0.00,0.00,9,1,9,0.00
2013-11-8,68.0,53.2,38.3,50.7,25.8,14.4,85,43,15,0.00,0.00,9,0,9,0.00
2013-11-9,65.7,57.5,52.5,37.0,28.8,22.5,55,34,21,0.00,0.00,9,0,9,0.00
2013-11-10,69.3,57.6,46.0,36.3,27.3,16.1,66,34,15,0.00,0.00,7,0,7,0.00
2013-11-11,73.6,56.5,42.1,48.8,32.8,22.5,84,49,16,0.00,0.00,3,0,3,0.00
2013-11-12,61.0,44.4,31.8,50.0,14.5,-1.0,75,32,18,0.00,0.00,19,3,19,0.00
2013-11-13,50.9,36.6,24.8,10.4,5.9,1.8,43,28,19,0.00,0.00,6,1,6,0.00
2013-11-14,58.1,44.9,27.5,24.0,12.4,5.1,46,28,17,0.00,0.00,10,2,10,0.00
2013-11-15,67.5,58.0,51.1,50.8,36.1,24.0,71,45,26,0.00,0.00,8,0,8,0.00
2013-11-16,72.9,68.0,60.3,61.9,51.5,40.2,82,58,32,0.00,0.00,13,1,13,0.00
2013-11-17,83.8,72.7,58.8,64.6,37.2,14.1,79,35,11,0.00,0.00,11,2,11,0.00
2013-11-18,69.8,58.7,48.6,20.0,13.7,8.2,19,17,14,0.00,0.00,12,3,12,0.00
2013-11-19,64.4,56.6,51.6,17.1,12.7,9.7,19,17,16,0.00,0.00,13,2,13,0.00
2013-11-20,64.0,56.2,45.3,28.3,14.9,6.4,30,19,16,0.00,0.00,13,3,13,0.00
2013-11-21,71.8,62.5,41.4,62.8,47.4,28.9,86,59,32,0.00,0.00,18,2,18,1.02
2013-11-22,41.4,36.1,34.5,36.9,29.6,22.0,87,77,59,0.00,0.00,23,9,23,0.24
2013-11-23,43.2,37.6,33.4,32.9,21.5,6.1,89,57,26,0.00,0.00,17,7,17,0.00
2013-11-24,34.2,31.6,28.8,20.6,10.3,1.4,61,42,25,0.00,0.00,10,1,10,0.04
2013-11-25,35.8,34.3,32.2,30.5,27.6,19.5,84,76,59,0.00,0.00,8,1,10,0.04
2013-11-26,49.6,40.3,34.3,31.7,15.9,-0.2,85,43,19,0.00,0.00,19,4,19,0.00
2013-11-27,42.8,32.3,22.8,4.8,-0.7,-6.0,43,24,18,0.00,0.00,14,3,14,0.00
2013-11-28,53.2,34.5,21.4,23.3,8.0,2.9,59,35,18,0.00,0.00,8,0,8,0.00
2013-11-29,57.0,39.5,22.3,32.3,14.7,9.2,73,40,17,0.00,0.00,0,0,2,0.00
2013-11-30,66.6,51.7,37.0,38.6,25.4,15.3,59,37,20,0.00,0.00,5,0,5,0.00
2013-12-1,66.0,57.6,49.5,52.5,42.6,35.6,80,60,33,0.00,0.00,6,0,6,0.00
2013-12-2,69.6,52.3,36.7,55.2,36.8,19.9,87,63,17,0.00,0.00,2,0,2,0.00
2013-12-3,69.3,53.5,44.2,62.5,35.7,16.2,98,62,15,0.00,0.00,4,0,4,0.00
2013-12-4,75.7,58.3,40.6,40.2,26.6,13.3,58,32,13,0.00,0.00,17,2,17,0.00
2013-12-5,40.6,31.8,27.9,26.0,12.7,0.8,81,48,25,0.00,0.00,21,7,21,0.00
2013-12-6,25.9,23.3,20.3,17.8,13.3,7.9,71,65,58,0.00,0.00,0,0,0,0.00
2013-12-7,25.3,21.4,16.5,16.3,9.1,2.0,68,59,52,0.00,0.00,0,0,0,0.00
2013-12-8,34.0,30.5,25.3,27.4,23.8,15.9,81,76,67,0.00,0.00,0,0,0,0.08
2013-12-9,32.5,30.5,25.2,28.5,21.1,9.1,85,69,50,0.00,0.00,0,0,0,0.00
2013-12-10,36.0,24.7,17.1,12.0,8.3,3.3,65,50,34,0.00,0.00,0,0,0,0.12
2013-12-11,37.4,29.6,19.2,28.9,18.5,8.7,75,64,42,0.00,0.00,8,1,8,0.24
2013-12-12,44.4,32.4,20.7,25.2,14.1,8.2,68,48,29,0.00,0.00,5,0,6,0.24
2013-12-13,45.7,40.2,35.1,45.2,28.5,12.7,98,66,34,0.00,0.00,12,2,12,0.16
2013-12-14,46.0,39.0,29.1,45.5,28.1,9.6,98,70,32,0.00,0.00,8,0,8,0.00
2013-12-15,59.5,40.5,24.3,28.5,14.8,9.7,68,39,17,0.00,0.00,9,0,9,0.00
2013-12-16,63.0,47.8,36.1,22.0,18.5,13.5,54,33,16,0.00,0.00,7,1,7,0.00
2013-12-17,69.1,50.4,36.7,28.1,18.5,9.7,52,31,15,0.00,0.00,5,0,5,0.00
2013-12-18,68.5,50.0,30.0,38.8,20.8,15.8,75,36,15,0.00,0.00,11,1,11,0.00
2013-12-19,69.3,60.7,52.9,51.2,40.1,27.0,73,49,27,0.00,0.00,14,1,14,0.00
2013-12-20,68.4,53.2,35.4,57.1,44.0,31.5,93,73,34,0.00,0.00,12,2,12,0.00
2013-12-21,54.3,42.6,35.2,53.5,41.6,33.4,98,96,93,0.00,0.00,11,0,11,1.34
2013-12-22,42.3,35.6,27.5,41.5,19.7,6.3,98,57,26,0.00,0.00,13,2,13,0.00
2013-12-23,41.5,30.8,21.2,19.3,12.1,5.6,72,48,23,0.00,0.00,10,1,10,0.00
2013-12-24,49.6,34.9,22.6,20.4,14.6,10.3,73,47,21,0.00,0.00,15,1,15,0.00
2013-12-25,54.1,40.7,31.5,23.6,18.3,14.5,59,42,24,0.00,0.00,10,1,10,0.00
2013-12-26,53.4,37.9,27.5,30.2,18.9,11.7,79,51,21,0.00,0.00,7,0,7,0.00
2013-12-27,57.0,39.8,25.5,36.1,16.6,7.1,76,45,17,0.00,0.00,6,0,6,0.00
2013-12-28,60.4,45.8,32.2,39.5,20.3,13.5,74,40,19,0.00,0.00,8,0,8,0.00
2013-12-29,52.0,38.5,29.5,26.1,12.7,3.3,52,34,28,0.00,0.00,15,1,15,0.00
2013-12-30,41.5,31.1,22.3,4.6,1.8,-2.2,45,29,21,0.00,0.00,8,0,8,0.00
2013-12-31,53.6,36.1,21.0,13.8,7.3,2.0,49,32,18,0.00,0.00,12,0,12,0.00
2014-1-1,63.1,45.2,31.6,29.3,17.5,6.3,59,35,18,0.00,0.00,17,2,17,0.00
2014-1-2,38.1,28.0,19.9,7.1,0.5,-5.4,43,31,21,0.00,0.00,14,5,18,0.00